This is the latest recevied weather packets stored in our database for station/object DM4XI-13. If no packets are shown the sender has not sent any weather packets the latest 1 day(s).
| Time | Temp. | Humidity | Pressure | Rain* | Wind** | Luminosity | Snow |
|---|---|---|---|---|---|---|---|
| 1778091717 | 13.89° C | 78% | 1003.6 hPa | 0 mm | 0.89 m/s, 288° | 0 W/m² | - |
| 1778091472 | 13.89° C | 78% | 1003.5 hPa | 0 mm | 0.89 m/s, 266° | 1 W/m² | - |
| 1778091411 | 13.89° C | 78% | 1003.6 hPa | 0 mm | 0.89 m/s, 305° | 1 W/m² | - |
| 1778090801 | 13.89° C | 77% | 1003.2 hPa | 0 mm | 1.79 m/s, 301° | 3 W/m² | - |
| 1778089581 | 13.89° C | 78% | 1003.4 hPa | 0.51 mm | 1.34 m/s, 291° | 15 W/m² | - |
| 1778089398 | 14.44° C | 78% | 1003.4 hPa | 0.51 mm | 1.79 m/s, 302° | 18 W/m² | - |
| 1778089337 | 14.44° C | 78% | 1003.3 hPa | 0.51 mm | 1.34 m/s, 294° | 19 W/m² | - |
| 1778089215 | 14.44° C | 77% | 1003.2 hPa | 0.51 mm | 1.79 m/s, 314° | 23 W/m² | - |
| 1778089154 | 14.44° C | 77% | 1003.3 hPa | 0.51 mm | 2.68 m/s, 336° | 26 W/m² | - |
| 1778089032 | 14.44° C | 78% | 1003.1 hPa | 0.51 mm | 1.79 m/s, 316° | 31 W/m² | - |
| 1778088971 | 14.44° C | 78% | 1003 hPa | 0.51 mm | 1.79 m/s, 310° | 34 W/m² | - |
| 1778088851 | 14.44° C | 80% | 1003 hPa | 0.51 mm | 1.34 m/s, 334° | 33 W/m² | - |
| 1778088605 | 15° C | 78% | 1003.1 hPa | 0.51 mm | 1.79 m/s, 304° | 24 W/m² | - |
| 1778088483 | 15° C | 77% | 1003 hPa | 0.51 mm | 1.34 m/s, 299° | 19 W/m² | - |
| 1778088422 | 15.56° C | 77% | 1003 hPa | 0.51 mm | 0.45 m/s, 282° | 16 W/m² | - |
| 1778087995 | 15.56° C | 73% | 1003.3 hPa | 0 mm | 2.24 m/s, 292° | 14 W/m² | - |
| 1778087567 | 15.56° C | 76% | 1003.1 hPa | 0 mm | 1.34 m/s, 284° | 13 W/m² | - |
| 1778087385 | 15.56° C | 73% | 1003 hPa | 0 mm | 0 m/s | 14 W/m² | - |
| 1778086957 | 16.11° C | 75% | 1002.9 hPa | 0 mm | 0.45 m/s, 190° | 22 W/m² | - |
| 1778086774 | 16.11° C | 74% | 1003 hPa | 0 mm | 1.34 m/s, 173° | 28 W/m² | - |
| 1778086428 | 16.67° C | 73% | 1002.6 hPa | 0 mm | 0.45 m/s, 255° | 47 W/m² | - |
| 1778086042 | 17.22° C | 67% | 1002.7 hPa | 0 mm | 1.79 m/s, 301° | 30 W/m² | - |
| 1778085981 | 17.22° C | 66% | 1002.6 hPa | 0 mm | 1.79 m/s, 294° | 27 W/m² | - |
| 1778085859 | 17.78° C | 64% | 1002.6 hPa | 0 mm | 1.34 m/s, 303° | 21 W/m² | - |
| 1778085798 | 17.78° C | 63% | 1002.8 hPa | 0 mm | 1.79 m/s, 323° | 18 W/m² | - |
* Rain latest hour (hover to see other rain measurements)
** Current wind speed in m/s (hover to see current wind gust speed)